Time;durP1;ratioP1;P1;durP2;ratioP2;P2;SDS_P1;SDS_P2;PMS_P1;PMS_P2;Temp;Humidity;BMP_temperature;BMP_pressure;BME280_temperature;BME280_humidity;BME280_pressure;Samples;Min_cycle;Max_cycle;Signal;HPM_P1;HPM_P2
2022/10/18 07:57:37;;;;;;;242.88;31.20;;;12.10;99.90;;;;;;6209968;22;358002;-94
2022/10/18 08:00:03;;;;;;;119.85;20.40;;;12.10;99.90;;;;;;6194363;23;20020;-92
2022/10/18 08:02:29;;;;;;;58.95;15.23;;;12.20;99.90;;;;;;6191881;23;20012;-96
2022/10/18 08:04:57;;;;;;;89.68;18.50;;;12.20;99.90;;;;;;6192817;23;20023;-93
2022/10/18 08:07:22;;;;;;;130.48;23.10;;;12.30;99.90;;;;;;6179197;23;20024;-94
2022/10/18 08:09:48;;;;;;;150.88;22.48;;;12.30;99.90;;;;;;6205102;23;20345;-96
2022/10/18 08:12:14;;;;;;;152.77;22.35;;;12.40;99.90;;;;;;6195846;23;20475;-96
2022/10/18 08:14:40;;;;;;;176.88;25.27;;;12.30;99.90;;;;;;6176683;23;20016;-96
2022/10/18 08:17:05;;;;;;;86.55;18.67;;;12.30;99.90;;;;;;6175720;23;20059;-96
2022/10/18 08:19:31;;;;;;;122.55;20.10;;;12.40;99.90;;;;;;6194276;23;20100;-96
2022/10/18 08:21:57;;;;;;;104.38;19.98;;;12.40;99.90;;;;;;6205645;23;20016;-96
2022/10/18 08:24:23;;;;;;;87.13;22.50;;;12.30;99.90;;;;;;6174648;23;20103;-96
2022/10/18 08:29:27;;;;;;;75.75;20.80;;;12.40;99.90;;;;;;6213630;22;20342;-96
2022/10/18 08:31:52;;;;;;;96.18;23.40;;;12.40;99.90;;;;;;6198703;22;20000;-95
2022/10/18 08:34:18;;;;;;;52.47;21.60;;;12.50;99.90;;;;;;6193640;22;20029;-94
2022/10/18 08:39:19;;;;;;;52.45;21.15;;;12.50;99.90;;;;;;6190396;23;20031;-94
2022/10/18 08:42:07;;;;;;;57.92;22.75;;;12.50;99.90;;;;;;6181126;23;20100;-96
2022/10/18 08:44:49;;;;;;;51.10;20.50;;;12.50;99.90;;;;;;6175338;23;20029;-96
2022/10/18 08:47:42;;;;;;;50.97;20.70;;;12.60;99.90;;;;;;6170968;23;20009;-96
2022/10/18 08:50:16;;;;;;;63.17;21.70;;;12.70;99.90;;;;;;6170221;23;20029;-95
2022/10/18 08:53:50;;;;;;;67.70;22.15;;;12.70;99.90;;;;;;5294904;22;20222;-96
2022/10/18 08:56:20;;;;;;;;;;;12.70;99.90;;;;;;5096090;28;20040;-96
2022/10/18 08:58:46;;;;;;;32.70;18.23;;;12.70;99.90;;;;;;5094825;28;19919;-96
2022/10/18 09:01:35;;;;;;;32.58;18.70;;;12.70;99.90;;;;;;5094574;28;20396;-94
2022/10/18 09:04:39;;;;;;;22.75;16.35;;;12.80;99.90;;;;;;5111123;28;20044;-96
2022/10/18 09:07:57;;;;;;;36.20;19.73;;;12.80;99.90;;;;;;5077558;28;20042;-95
2022/10/18 09:10:56;;;;;;;28.63;17.98;;;12.70;99.90;;;;;;5019062;28;20041;-96
2022/10/18 09:13:37;;;;;;;25.17;15.90;;;12.80;99.90;;;;;;5028449;28;20049;-94
2022/10/18 09:16:09;;;;;;;29.83;20.00;;;12.80;99.90;;;;;;5014115;28;20060;-96
2022/10/18 09:19:01;;;;;;;25.30;16.92;;;12.80;99.90;;;;;;5023196;28;20044;-96
2022/10/18 09:21:44;;;;;;;22.38;15.52;;;12.90;99.90;;;;;;5030531;28;20059;-95
2022/10/18 09:24:28;;;;;;;23.77;16.77;;;12.90;99.90;;;;;;5042514;28;20454;-95
2022/10/18 09:27:00;;;;;;;30.83;18.17;;;13.00;99.90;;;;;;5010350;28;20128;-94
2022/10/18 09:29:48;;;;;;;25.88;16.83;;;13.00;99.90;;;;;;5013082;28;20053;-95
2022/10/18 09:32:23;;;;;;;24.50;17.15;;;13.10;99.90;;;;;;5029796;28;20045;-95
2022/10/18 09:34:56;;;;;;;23.02;16.55;;;13.10;99.90;;;;;;5028377;28;20546;-96
2022/10/18 09:37:23;;;;;;;23.02;16.33;;;13.10;99.90;;;;;;5020156;28;20109;-95
2022/10/18 09:39:54;;;;;;;25.27;17.58;;;13.20;99.90;;;;;;5025160;28;20425;-95
2022/10/18 09:42:27;;;;;;;23.87;15.40;;;13.10;99.90;;;;;;5095869;28;20385;-94
2022/10/18 09:45:13;;;;;;;24.00;16.45;;;13.20;99.90;;;;;;5094586;28;20127;-92
2022/10/18 09:47:52;;;;;;;25.00;16.58;;;13.20;99.90;;;;;;5075794;28;20048;-93
2022/10/18 09:50:33;;;;;;;21.48;15.60;;;13.20;99.90;;;;;;5104291;28;20043;-94
2022/10/18 09:53:26;;;;;;;22.35;16.63;;;13.30;99.90;;;;;;5107601;28;20055;-93
2022/10/18 09:56:22;;;;;;;27.92;16.85;;;13.30;99.90;;;;;;5107046;28;20382;-95
2022/10/18 09:58:50;;;;;;;27.13;16.60;;;13.30;99.90;;;;;;4994932;28;20054;-94
2022/10/18 10:01:27;;;;;;;22.52;14.93;;;13.40;99.90;;;;;;5014806;28;20085;-94
2022/10/18 10:03:53;;;;;;;24.77;16.10;;;13.30;99.90;;;;;;5005536;28;20541;-94
2022/10/18 10:06:25;;;;;;;22.92;14.73;;;13.50;99.90;;;;;;4966123;28;20039;-95
2022/10/18 10:09:06;;;;;;;22.33;13.93;;;13.50;99.90;;;;;;4962772;28;20599;-95
2022/10/18 10:11:39;;;;;;;20.67;12.63;;;13.60;99.90;;;;;;5012823;28;20196;-95
2022/10/18 10:14:15;;;;;;;20.40;11.55;;;13.60;99.90;;;;;;4992697;28;20042;-94
2022/10/18 10:16:50;;;;;;;16.40;8.32;;;13.70;99.90;;;;;;4960288;28;20054;-93
2022/10/18 10:19:29;;;;;;;17.15;6.55;;;13.80;99.90;;;;;;4977463;28;20042;-94
2022/10/18 10:22:10;;;;;;;16.55;6.13;;;13.80;99.90;;;;;;4982454;28;20163;-90
2022/10/18 10:24:49;;;;;;;12.82;6.30;;;13.80;99.90;;;;;;4991334;28;20046;-95
2022/10/18 10:27:31;;;;;;;17.48;7.40;;;13.90;99.90;;;;;;5012023;28;20041;-93
2022/10/18 10:29:59;;;;;;;17.92;6.90;;;14.00;99.90;;;;;;5007320;28;20046;-92
2022/10/18 10:32:29;;;;;;;15.23;6.93;;;14.00;99.90;;;;;;5004887;28;20046;-91
2022/10/18 10:34:55;;;;;;;15.80;6.22;;;14.00;99.90;;;;;;5006932;28;20044;-91
2022/10/18 10:37:33;;;;;;;14.70;5.25;;;14.10;99.90;;;;;;5087450;28;20118;-92
2022/10/18 10:40:18;;;;;;;12.50;3.78;;;14.20;99.90;;;;;;5093730;28;20130;-91
2022/10/18 10:42:55;;;;;;;14.45;3.22;;;14.20;99.90;;;;;;5091574;28;20040;-92
2022/10/18 10:45:23;;;;;;;11.77;3.17;;;14.20;99.90;;;;;;5090838;28;20039;-91
2022/10/18 10:47:51;;;;;;;13.38;3.38;;;14.20;99.90;;;;;;5092014;28;20047;-90
2022/10/18 10:50:24;;;;;;;11.15;3.20;;;14.30;99.90;;;;;;5093237;28;20061;-94
2022/10/18 10:52:51;;;;;;;13.27;3.45;;;14.30;99.90;;;;;;5069795;28;20132;-91
2022/10/18 10:55:32;;;;;;;13.63;3.17;;;14.20;99.90;;;;;;5085795;28;20614;-92
2022/10/18 10:57:57;;;;;;;;;;;14.30;99.90;;;;;;5071092;28;20072;-93
2022/10/18 11:00:37;;;;;;;15.85;3.40;;;14.30;99.90;;;;;;5089956;28;19939;-92
2022/10/18 11:03:15;;;;;;;11.43;3.40;;;14.40;99.90;;;;;;5087206;28;20727;-92
2022/10/18 11:05:44;;;;;;;12.35;3.25;;;14.50;99.90;;;;;;5085847;28;20392;-95
2022/10/18 11:08:13;;;;;;;13.15;3.20;;;14.60;99.90;;;;;;5092217;28;20097;-96
2022/10/18 11:10:58;;;;;;;12.05;2.88;;;14.70;99.90;;;;;;5068754;28;20080;-95
2022/10/18 11:13:35;;;;;;;13.13;2.97;;;14.80;99.90;;;;;;5091109;28;20043;-95
2022/10/18 11:16:24;;;;;;;12.00;3.10;;;14.90;99.90;;;;;;5072552;28;20036;-96
2022/10/18 11:18:52;;;;;;;14.50;3.28;;;14.90;99.90;;;;;;5069608;28;20459;-93
2022/10/18 11:21:24;;;;;;;10.57;3.03;;;15.00;99.90;;;;;;5086632;28;20036;-95
2022/10/18 11:23:50;;;;;;;11.18;2.95;;;15.00;99.90;;;;;;5072876;28;20503;-93
2022/10/18 11:26:42;;;;;;;10.40;2.60;;;15.00;99.90;;;;;;5076267;28;20036;-93
2022/10/18 11:29:31;;;;;;;13.40;2.90;;;15.10;99.90;;;;;;5090926;28;20054;-92
2022/10/18 11:32:34;;;;;;;11.20;2.13;;;15.20;99.90;;;;;;5091726;28;20039;-92
2022/10/18 11:35:26;;;;;;;10.07;2.33;;;15.30;99.90;;;;;;5071761;28;20047;-94
2022/10/18 11:37:54;;;;;;;10.30;2.40;;;15.30;99.90;;;;;;5084885;28;20028;-91
2022/10/18 11:40:41;;;;;;;11.02;2.28;;;15.30;99.90;;;;;;5073116;28;20056;-92
2022/10/18 12:17:41;;;;;;;9.95;1.70;;;15.40;99.90;;;;;;5016850;28;20057;-93
2022/10/18 12:20:13;;;;;;;10.23;2.40;;;15.60;99.90;;;;;;5036945;28;20063;-93
2022/10/18 20:27:34;;;;;;;9.88;2.22;;;12.20;99.90;;;;;;1337479;23;20261;-90
2022/10/18 20:30:00;;;;;;;10.27;2.40;;;12.30;99.90;;;;;;4903595;29;20079;-95
2022/10/18 20:32:25;;;;;;;8.23;2.53;;;12.20;99.90;;;;;;4916134;29;20048;-96
2022/10/18 20:34:51;;;;;;;7.80;2.88;;;12.30;99.90;;;;;;4913740;29;20071;-96
2022/10/18 20:37:16;;;;;;;11.10;3.65;;;12.20;99.90;;;;;;4913010;29;20040;-95
2022/10/18 20:39:42;;;;;;;10.13;3.47;;;12.20;99.90;;;;;;4901644;29;20052;-96
2022/10/18 20:42:08;;;;;;;9.23;3.35;;;12.20;99.90;;;;;;4901751;29;20071;-95
2022/10/18 20:44:33;;;;;;;8.25;3.33;;;12.20;99.90;;;;;;4915687;29;20044;-96
2022/10/18 20:46:59;;;;;;;9.05;2.90;;;12.20;99.90;;;;;;4901011;29;20115;-96
2022/10/18 20:49:24;;;;;;;10.43;3.47;;;12.10;99.90;;;;;;4899693;29;20044;-94
2022/10/18 20:51:50;;;;;;;10.10;3.33;;;12.10;99.90;;;;;;4914181;29;20059;-95
2022/10/18 20:54:16;;;;;;;9.13;2.85;;;12.10;99.90;;;;;;4915101;29;20122;-95
2022/10/18 20:56:41;;;;;;;7.65;2.70;;;12.10;99.90;;;;;;4911119;29;20036;-94
2022/10/18 20:59:08;;;;;;;6.85;2.30;;;12.00;99.90;;;;;;4914510;29;20091;-95
2022/10/18 21:01:35;;;;;;;8.20;2.53;;;12.00;99.90;;;;;;4897158;29;20040;-95
2022/10/18 21:04:03;;;;;;;11.10;2.72;;;12.00;99.90;;;;;;4912312;29;20041;-95
2022/10/18 21:06:34;;;;;;;8.55;2.65;;;12.00;99.90;;;;;;4915355;29;20032;-95
2022/10/18 21:09:02;;;;;;;9.68;3.53;;;11.90;99.90;;;;;;4911693;29;20032;-96
2022/10/18 21:11:29;;;;;;;9.95;3.35;;;11.90;99.90;;;;;;4915157;29;20588;-95
2022/10/18 21:13:58;;;;;;;10.05;3.00;;;11.90;99.90;;;;;;4899366;29;20162;-94
2022/10/18 21:16:25;;;;;;;9.32;2.90;;;11.90;99.90;;;;;;4894207;29;20028;-95
2022/10/18 21:18:51;;;;;;;8.15;2.47;;;11.90;99.90;;;;;;4913779;29;20051;-95
2022/10/18 21:21:22;;;;;;;8.68;2.20;;;11.90;99.90;;;;;;4909575;29;20041;-96
2022/10/18 21:23:48;;;;;;;7.43;2.15;;;11.90;99.90;;;;;;4909009;29;20044;-95
2022/10/18 21:26:19;;;;;;;8.85;2.03;;;11.90;99.90;;;;;;4914667;29;20056;-95
2022/10/18 21:28:45;;;;;;;7.32;2.17;;;11.90;99.90;;;;;;4914742;29;20060;-95
2022/10/18 21:31:17;;;;;;;7.95;2.42;;;11.90;99.90;;;;;;4911456;29;20048;-96
2022/10/18 21:33:44;;;;;;;5.88;2.05;;;11.90;99.90;;;;;;4915675;29;20044;-95
2022/10/18 21:36:11;;;;;;;9.45;2.13;;;11.90;99.90;;;;;;4887434;29;20494;-95
2022/10/18 21:38:37;;;;;;;8.35;2.10;;;12.00;99.90;;;;;;4896784;29;20044;-95
2022/10/18 21:41:10;;;;;;;8.45;2.20;;;12.00;99.90;;;;;;4896209;29;20047;-94
2022/10/18 21:43:43;;;;;;;7.68;2.50;;;12.00;99.90;;;;;;4918004;29;20071;-96
2022/10/18 21:46:10;;;;;;;9.10;2.58;;;12.00;99.90;;;;;;4910591;29;20051;-94
2022/10/18 21:48:37;;;;;;;7.72;2.17;;;12.00;99.90;;;;;;4913261;29;20259;-95
2022/10/18 21:51:06;;;;;;;9.32;2.53;;;12.10;99.90;;;;;;4907550;29;20040;-96
2022/10/18 21:53:32;;;;;;;8.13;2.10;;;12.10;99.90;;;;;;4898851;29;20064;-95
2022/10/18 21:56:26;;;;;;;9.25;2.35;;;12.00;99.90;;;;;;4913730;29;20393;-95
2022/10/18 21:58:52;;;;;;;12.27;2.50;;;12.10;99.90;;;;;;4911423;29;20085;-95
2022/10/18 22:01:27;;;;;;;8.73;2.25;;;12.10;99.90;;;;;;4902067;29;20072;-96
2022/10/18 22:03:55;;;;;;;7.90;2.40;;;12.10;99.90;;;;;;4919400;29;20036;-95
2022/10/18 22:06:22;;;;;;;8.05;2.70;;;12.10;99.90;;;;;;4918127;29;20160;-96
2022/10/18 22:08:51;;;;;;;9.35;2.75;;;12.10;99.90;;;;;;4913684;29;20042;-96
2022/10/18 22:11:19;;;;;;;9.68;3.00;;;12.10;99.90;;;;;;4913970;29;20441;-93
2022/10/18 22:13:45;;;;;;;8.65;2.78;;;12.10;99.90;;;;;;4916751;29;20119;-95
2022/10/18 22:16:13;;;;;;;10.90;2.70;;;12.20;99.90;;;;;;4918116;29;20142;-95
2022/10/18 22:18:39;;;;;;;8.32;2.50;;;12.20;99.90;;;;;;4916528;29;20087;-95
2022/10/18 22:21:07;;;;;;;8.40;2.60;;;12.20;99.90;;;;;;4917661;29;20032;-95
2022/10/18 22:23:35;;;;;;;7.28;2.30;;;12.20;99.90;;;;;;4901600;29;20051;-94
2022/10/18 22:26:03;;;;;;;8.30;2.60;;;12.20;99.90;;;;;;4901755;29;20044;-95
2022/10/18 22:28:28;;;;;;;9.77;2.85;;;12.30;99.90;;;;;;4915576;29;20067;-96
2022/10/18 22:30:54;;;;;;;9.32;2.47;;;12.20;99.90;;;;;;4915886;29;20044;-96
2022/10/18 22:33:20;;;;;;;7.30;2.55;;;12.20;99.90;;;;;;4901730;29;20043;-95
2022/10/18 22:35:49;;;;;;;10.63;2.70;;;12.20;99.90;;;;;;4901346;29;20470;-95
2022/10/18 22:38:14;;;;;;;8.45;2.78;;;12.20;99.90;;;;;;4913143;29;20127;-95
2022/10/18 22:40:40;;;;;;;8.75;3.00;;;12.10;99.90;;;;;;4918252;29;20118;-96
2022/10/18 22:43:06;;;;;;;9.98;3.20;;;12.00;99.90;;;;;;4902176;29;20513;-95
2022/10/18 22:45:31;;;;;;;9.70;3.20;;;12.00;99.90;;;;;;4900883;29;20095;-94
2022/10/18 22:47:57;;;;;;;10.95;3.28;;;11.90;99.90;;;;;;4899636;29;20111;-95
2022/10/18 22:50:23;;;;;;;8.85;3.35;;;11.80;99.90;;;;;;4916176;29;20075;-95
2022/10/18 22:52:48;;;;;;;10.57;2.90;;;11.70;99.90;;;;;;4900256;29;20096;-96
2022/10/18 22:55:14;;;;;;;7.95;2.70;;;11.70;99.90;;;;;;4900553;29;20032;-96
2022/10/18 22:57:39;;;;;;;8.68;3.10;;;11.70;99.90;;;;;;4901090;29;20048;-96
2022/10/18 23:00:06;;;;;;;12.10;3.17;;;11.60;99.90;;;;;;4901015;29;20108;-95
2022/10/18 23:02:32;;;;;;;8.13;3.22;;;11.60;99.90;;;;;;4914327;29;20044;-96
2022/10/18 23:04:58;;;;;;;9.63;2.85;;;11.50;99.90;;;;;;4914981;29;20052;-95
2022/10/18 23:07:23;;;;;;;9.25;2.97;;;11.50;99.90;;;;;;4913584;29;20041;-95
2022/10/18 23:09:49;;;;;;;6.43;2.60;;;11.50;99.90;;;;;;4915677;29;20462;-95
2022/10/18 23:12:14;;;;;;;7.80;2.90;;;11.40;99.90;;;;;;4911166;29;20036;-95
2022/10/18 23:14:40;;;;;;;8.13;2.85;;;11.40;99.90;;;;;;4897803;29;20037;-95
2022/10/18 23:17:05;;;;;;;10.77;3.20;;;11.30;99.90;;;;;;4916575;29;20064;-94
2022/10/18 23:19:31;;;;;;;9.75;3.00;;;11.30;99.90;;;;;;4915115;29;20540;-95
2022/10/18 23:21:56;;;;;;;10.25;3.00;;;11.20;99.90;;;;;;4898678;29;20043;-95
2022/10/18 23:24:22;;;;;;;10.55;2.88;;;11.10;99.90;;;;;;4900795;29;20042;-94
2022/10/18 23:26:48;;;;;;;11.13;3.15;;;11.00;99.90;;;;;;4915658;29;20036;-95
2022/10/18 23:29:13;;;;;;;9.30;3.03;;;11.00;99.90;;;;;;4916412;29;20111;-95
2022/10/18 23:31:39;;;;;;;12.40;3.13;;;11.00;99.90;;;;;;4900398;29;20122;-95
2022/10/18 23:34:05;;;;;;;8.52;2.80;;;10.90;99.90;;;;;;4900026;29;20054;-96
2022/10/18 23:36:31;;;;;;;11.35;3.33;;;10.80;99.90;;;;;;4900472;29;20044;-95
2022/10/18 23:38:57;;;;;;;9.25;3.35;;;10.70;99.90;;;;;;4916908;29;20072;-95
2022/10/18 23:41:24;;;;;;;9.40;3.00;;;10.70;99.90;;;;;;4917865;29;20039;-96
2022/10/18 23:43:50;;;;;;;9.48;2.92;;;10.60;99.90;;;;;;4913432;29;20145;-96
2022/10/18 23:46:16;;;;;;;8.65;2.80;;;10.60;99.90;;;;;;4901134;29;20044;-96
2022/10/18 23:48:42;;;;;;;8.48;2.67;;;10.60;99.90;;;;;;4901053;29;20493;-95
2022/10/18 23:51:08;;;;;;;9.15;3.63;;;10.50;99.90;;;;;;4899793;29;20485;-95
2022/10/18 23:53:34;;;;;;;9.35;3.78;;;10.50;99.90;;;;;;4898442;29;20044;-95
2022/10/18 23:56:03;;;;;;;8.68;3.00;;;10.30;99.90;;;;;;4903515;29;20043;-96
2022/10/18 23:58:31;;;;;;;7.88;3.08;;;10.30;99.90;;;;;;4919160;29;20072;-94
